createdAt,value
2018-06-30T00:02:16.248Z,25.27
2018-06-30T00:04:50.961Z,25.36
2018-06-30T00:07:22.101Z,25.39
2018-06-30T00:09:51.992Z,25.56
2018-06-30T00:12:21.978Z,25.74
2018-06-30T00:14:51.773Z,25.65
2018-06-30T00:17:21.484Z,25.63
2018-06-30T00:19:51.225Z,25.30
2018-06-30T00:22:21.131Z,25.15
2018-06-30T00:24:50.876Z,24.97
2018-06-30T00:27:25.869Z,24.72
2018-06-30T00:29:55.958Z,24.70
2018-06-30T00:32:31.023Z,24.54
2018-06-30T00:35:15.321Z,24.50
2018-06-30T00:37:56.235Z,24.62
2018-06-30T00:40:32.195Z,24.63
2018-06-30T00:43:11.018Z,24.59
2018-06-30T00:45:54.718Z,24.67
2018-06-30T00:48:37.411Z,24.55
2018-06-30T00:51:19.094Z,24.33
2018-06-30T00:53:56.149Z,24.35
2018-06-30T00:56:35.182Z,24.31
2018-06-30T00:59:15.983Z,24.23
2018-06-30T01:01:51.524Z,24.09
2018-06-30T01:04:25.513Z,24.11
2018-06-30T01:07:02.169Z,24.06
2018-06-30T01:09:50.069Z,24.11
2018-06-30T01:12:29.996Z,24.29
2018-06-30T01:15:13.949Z,24.45
2018-06-30T01:17:52.484Z,24.25
2018-06-30T01:20:36.970Z,24.12
2018-06-30T01:23:21.301Z,24.05
2018-06-30T01:28:41.063Z,24.14
2018-06-30T01:31:18.280Z,24.35
2018-06-30T01:34:03.895Z,24.15
2018-06-30T01:36:49.110Z,24.08
2018-06-30T01:39:34.685Z,24.33
2018-06-30T01:42:08.649Z,24.02
2018-06-30T01:44:47.772Z,23.79
2018-06-30T01:47:27.982Z,23.45
2018-06-30T01:50:07.430Z,23.39
2018-06-30T01:52:46.117Z,23.22
2018-06-30T01:55:23.643Z,23.43
2018-06-30T01:58:00.335Z,23.24
2018-06-30T02:00:38.572Z,23.26
2018-06-30T02:03:20.283Z,23.44
2018-06-30T02:05:55.907Z,23.19
2018-06-30T02:08:31.299Z,23.21
2018-06-30T02:11:08.581Z,23.75
2018-06-30T02:13:49.949Z,23.82
2018-06-30T02:16:28.457Z,23.42
2018-06-30T02:19:11.868Z,23.13
2018-06-30T02:21:55.576Z,22.92
2018-06-30T02:24:35.878Z,22.95
2018-06-30T02:27:15.986Z,23.01
2018-06-30T02:29:53.503Z,22.97
2018-06-30T02:32:33.553Z,22.80
2018-06-30T02:35:11.067Z,22.61
2018-06-30T02:37:54.075Z,22.62
2018-06-30T02:40:32.441Z,22.47
2018-06-30T02:43:12.511Z,22.27
2018-06-30T02:45:52.752Z,22.22
2018-06-30T02:48:44.430Z,22.38
2018-06-30T02:51:23.961Z,22.25
2018-06-30T02:54:05.224Z,22.24
2018-06-30T02:56:42.564Z,22.74
2018-06-30T02:59:22.720Z,22.53
2018-06-30T03:02:00.925Z,22.40
2018-06-30T03:07:17.956Z,22.01
2018-06-30T03:09:58.247Z,21.75
2018-06-30T03:12:34.184Z,21.62
2018-06-30T03:15:17.088Z,21.68
2018-06-30T03:20:43.727Z,21.92
2018-06-30T03:23:18.021Z,22.00
2018-06-30T03:25:48.743Z,22.06
2018-06-30T03:28:18.498Z,22.11
2018-06-30T03:30:48.231Z,22.10
2018-06-30T03:33:18.152Z,22.21
2018-06-30T03:35:47.939Z,22.08
2018-06-30T03:38:17.769Z,22.26
2018-06-30T03:40:47.628Z,22.60
2018-06-30T03:43:18.012Z,22.44
2018-06-30T03:45:47.970Z,22.28
2018-06-30T03:48:17.913Z,22.11
2018-06-30T03:50:47.775Z,21.86
2018-06-30T03:53:17.684Z,22.19
2018-06-30T03:55:47.513Z,22.35
2018-06-30T03:58:17.400Z,22.69
2018-06-30T04:00:47.331Z,22.94
2018-06-30T04:03:17.311Z,23.03
2018-06-30T04:05:47.243Z,22.87
2018-06-30T04:08:17.217Z,22.74
2018-06-30T04:10:47.445Z,22.90
2018-06-30T04:13:17.321Z,23.22
2018-06-30T04:15:47.558Z,23.13
2018-06-30T04:18:17.329Z,22.95
2018-06-30T04:20:47.095Z,22.91
2018-06-30T04:23:17.852Z,23.25
2018-06-30T04:25:47.581Z,23.41
2018-06-30T04:28:17.427Z,23.75
2018-06-30T04:30:47.310Z,23.97
2018-06-30T04:33:17.040Z,24.24
2018-06-30T04:35:46.911Z,24.17
2018-06-30T04:38:16.652Z,24.52
2018-06-30T04:43:21.493Z,24.78
2018-06-30T04:45:51.189Z,24.92
2018-06-30T04:48:20.957Z,25.07
2018-06-30T04:56:01.106Z,25.12
2018-06-30T04:58:30.999Z,25.22
2018-06-30T05:01:00.808Z,25.59
2018-06-30T05:03:30.596Z,25.80
2018-06-30T05:06:00.405Z,26.01
2018-06-30T05:08:30.193Z,26.19
2018-06-30T05:10:59.944Z,26.55
2018-06-30T05:13:29.748Z,26.51
2018-06-30T05:15:59.515Z,26.69
2018-06-30T05:18:29.256Z,26.40
2018-06-30T05:20:59.140Z,26.59
2018-06-30T05:23:29.143Z,26.42
2018-06-30T05:25:58.933Z,26.53
2018-06-30T05:28:31.125Z,26.60
2018-06-30T05:31:00.871Z,26.77
2018-06-30T05:33:33.225Z,26.95
2018-06-30T05:36:03.555Z,27.30
2018-06-30T05:38:36.771Z,27.36
2018-06-30T05:41:07.814Z,27.45
2018-06-30T05:43:40.177Z,27.71
2018-06-30T05:46:11.150Z,27.77
2018-06-30T05:48:41.299Z,27.77
2018-06-30T05:51:11.334Z,27.59
2018-06-30T05:53:41.521Z,27.68
2018-06-30T05:56:12.365Z,27.80
2018-06-30T05:58:42.922Z,28.02
2018-06-30T06:01:13.060Z,28.13
2018-06-30T06:03:43.058Z,28.24
2018-06-30T06:06:14.608Z,28.34
2018-06-30T06:08:44.713Z,28.09
2018-06-30T06:11:17.640Z,28.16
2018-06-30T06:16:25.936Z,28.36
2018-06-30T06:19:02.479Z,28.86
2018-06-30T06:24:12.509Z,28.59
2018-06-30T06:26:43.031Z,28.80
2018-06-30T06:29:13.986Z,29.18
2018-06-30T06:31:45.804Z,28.97
2018-06-30T06:34:17.208Z,28.91
2018-06-30T06:36:48.127Z,29.29
2018-06-30T06:39:20.189Z,29.23
2018-06-30T06:41:50.019Z,29.38
2018-06-30T06:46:57.422Z,29.84
2018-06-30T06:49:27.385Z,30.09
2018-06-30T06:51:57.953Z,30.31
2018-06-30T06:54:29.113Z,30.40
2018-06-30T06:56:59.267Z,30.64
2018-06-30T06:59:30.909Z,30.63
2018-06-30T07:02:01.609Z,30.60
2018-06-30T07:04:31.367Z,30.65
2018-06-30T07:07:01.620Z,30.28
2018-06-30T07:09:34.777Z,30.55
2018-06-30T07:12:06.303Z,30.83
2018-06-30T07:14:38.096Z,30.98
2018-06-30T07:17:16.133Z,31.17
2018-06-30T07:19:46.729Z,31.18
2018-06-30T07:24:53.643Z,31.26
2018-06-30T07:27:23.564Z,31.17
2018-06-30T07:30:01.319Z,31.07
2018-06-30T07:32:31.926Z,30.77
2018-06-30T07:35:09.270Z,30.79
2018-06-30T07:37:39.785Z,31.04
2018-06-30T07:42:47.549Z,31.42
2018-06-30T07:45:18.244Z,31.39
2018-06-30T07:47:49.860Z,31.15
2018-06-30T07:50:20.783Z,31.21
2018-06-30T07:52:51.701Z,31.42
2018-06-30T07:55:21.447Z,31.33
2018-06-30T07:57:51.173Z,31.48
2018-06-30T08:00:21.036Z,31.80
2018-06-30T08:02:50.831Z,31.96
2018-06-30T08:05:20.632Z,31.17
2018-06-30T08:07:50.405Z,30.77
2018-06-30T08:10:20.270Z,31.05
2018-06-30T08:12:50.618Z,31.09
2018-06-30T08:15:21.218Z,31.27
2018-06-30T08:17:51.170Z,31.16
2018-06-30T08:20:20.933Z,31.44
2018-06-30T08:22:50.658Z,31.86
2018-06-30T08:27:56.053Z,32.30
2018-06-30T08:30:25.753Z,32.23
2018-06-30T08:32:55.444Z,31.54
2018-06-30T08:38:00.983Z,31.87
2018-06-30T08:40:30.865Z,32.04
2018-06-30T08:43:00.613Z,31.47
2018-06-30T08:48:09.570Z,31.96
2018-06-30T08:50:39.366Z,32.12
2018-06-30T08:55:45.761Z,31.72
2018-06-30T08:58:15.451Z,31.92
2018-06-30T09:00:45.264Z,31.82
2018-06-30T09:03:14.989Z,31.93
2018-06-30T09:05:44.786Z,32.02
2018-06-30T09:08:14.555Z,31.94
2018-06-30T09:10:44.712Z,31.91
2018-06-30T09:13:14.384Z,31.79
2018-06-30T09:15:44.126Z,32.15
2018-06-30T09:18:13.937Z,32.15
2018-06-30T09:20:43.706Z,32.06
2018-06-30T09:23:13.486Z,31.74
2018-06-30T09:25:43.265Z,32.08
2018-06-30T09:28:13.023Z,31.96
2018-06-30T09:30:43.251Z,31.83
2018-06-30T09:33:12.954Z,31.62
2018-06-30T09:35:42.996Z,31.57
2018-06-30T09:38:12.795Z,31.61
2018-06-30T09:40:42.612Z,31.94
2018-06-30T09:45:50.408Z,32.09
2018-06-30T09:48:21.441Z,32.43
2018-06-30T09:50:51.292Z,32.13
2018-06-30T09:53:25.276Z,31.78
2018-06-30T09:55:56.277Z,32.00
2018-06-30T09:58:28.161Z,31.93
2018-06-30T10:01:03.398Z,32.01
2018-06-30T10:03:33.096Z,32.45
2018-06-30T10:06:03.018Z,31.87
2018-06-30T10:08:33.699Z,32.22
2018-06-30T10:11:04.420Z,32.17
2018-06-30T10:13:34.462Z,32.24
2018-06-30T10:16:04.468Z,32.31
2018-06-30T10:18:34.233Z,32.22
2018-06-30T10:23:39.342Z,33.06
2018-06-30T10:26:09.168Z,33.22
2018-06-30T10:28:38.855Z,33.26
2018-06-30T10:31:08.558Z,33.48
2018-06-30T10:33:38.229Z,33.59
2018-06-30T10:36:08.953Z,33.73
2018-06-30T10:38:38.724Z,33.87
2018-06-30T10:41:08.521Z,33.74
2018-06-30T10:43:38.800Z,34.39
2018-06-30T10:46:08.468Z,34.80
2018-06-30T10:48:38.962Z,34.25
2018-06-30T10:51:09.250Z,34.18
2018-06-30T10:53:41.153Z,33.76
2018-06-30T10:56:11.218Z,33.56
2018-06-30T10:58:42.976Z,33.85
2018-06-30T11:01:15.951Z,33.54
2018-06-30T11:03:45.925Z,33.68
2018-06-30T11:06:15.662Z,33.99
2018-06-30T11:08:45.320Z,34.64
2018-06-30T11:11:18.165Z,34.68
2018-06-30T11:13:48.612Z,34.68
2018-06-30T11:16:22.753Z,34.61
2018-06-30T11:18:53.515Z,34.44
2018-06-30T11:21:26.131Z,34.60
2018-06-30T11:24:01.152Z,34.83
2018-06-30T11:26:31.811Z,34.52
2018-06-30T11:29:02.754Z,34.51
2018-06-30T11:31:33.495Z,34.60
2018-06-30T11:34:04.660Z,34.96
2018-06-30T11:36:34.759Z,34.86
2018-06-30T11:39:10.350Z,34.78
2018-06-30T11:41:40.240Z,34.75
2018-06-30T11:44:10.325Z,34.26
2018-06-30T11:46:41.579Z,34.00
2018-06-30T11:49:12.244Z,33.70
2018-06-30T11:51:43.549Z,33.36
2018-06-30T11:54:14.572Z,33.25
2018-06-30T11:56:46.020Z,33.47
2018-06-30T11:59:16.612Z,33.66
2018-06-30T12:01:46.980Z,33.95
2018-06-30T12:04:17.787Z,34.13
2018-06-30T12:06:49.407Z,33.79
2018-06-30T12:09:20.335Z,33.39
2018-06-30T12:11:50.866Z,32.87
2018-06-30T12:14:20.780Z,32.86
2018-06-30T12:16:50.527Z,33.65
2018-06-30T12:19:20.209Z,33.44
2018-06-30T12:21:49.985Z,33.78
2018-06-30T12:24:19.781Z,34.11
2018-06-30T12:26:49.641Z,34.53
2018-06-30T12:29:19.407Z,34.55
2018-06-30T12:31:49.202Z,33.96
2018-06-30T12:34:19.719Z,34.27
2018-06-30T12:36:49.434Z,33.17
2018-06-30T12:39:19.236Z,32.97
2018-06-30T12:41:49.089Z,33.45
2018-06-30T12:44:18.755Z,33.42
2018-06-30T12:46:48.623Z,31.80
2018-06-30T12:51:54.017Z,31.06
2018-06-30T12:54:23.998Z,30.72
2018-06-30T12:56:53.636Z,29.73
2018-06-30T12:59:23.318Z,29.13
2018-06-30T13:01:53.072Z,28.79
2018-06-30T13:06:58.774Z,29.56
2018-06-30T13:09:28.585Z,29.83
2018-06-30T13:11:58.298Z,30.10
2018-06-30T13:14:27.980Z,30.34
2018-06-30T13:16:57.832Z,30.03
2018-06-30T13:19:27.726Z,29.85
2018-06-30T13:21:57.566Z,29.73
2018-06-30T13:24:27.497Z,29.62
2018-06-30T13:26:57.217Z,30.01
2018-06-30T13:29:27.028Z,30.20
2018-06-30T13:31:57.704Z,30.54
2018-06-30T13:34:27.516Z,31.00
2018-06-30T13:36:57.160Z,31.14
2018-06-30T13:39:26.910Z,31.34
2018-06-30T13:41:56.657Z,30.85
2018-06-30T13:44:26.534Z,31.13
2018-06-30T13:46:56.258Z,30.70
2018-06-30T13:49:26.130Z,30.74
2018-06-30T13:51:56.071Z,30.99
2018-06-30T13:54:25.712Z,31.44
2018-06-30T13:56:55.456Z,31.02
2018-06-30T13:59:25.169Z,30.73
2018-06-30T14:01:54.940Z,30.27
2018-06-30T14:04:24.765Z,29.70
2018-06-30T14:06:54.591Z,30.00
2018-06-30T14:09:24.283Z,30.20
2018-06-30T14:11:54.028Z,30.25
2018-06-30T14:14:24.063Z,30.08
2018-06-30T14:16:54.748Z,29.86
2018-06-30T14:19:24.594Z,29.73
2018-06-30T14:21:54.401Z,29.74
2018-06-30T14:24:25.198Z,29.76
2018-06-30T14:26:54.966Z,29.81
2018-06-30T14:32:00.077Z,29.99
2018-06-30T14:34:30.220Z,30.08
2018-06-30T14:37:00.002Z,30.12
2018-06-30T14:39:29.702Z,29.83
2018-06-30T14:41:59.481Z,29.55
2018-06-30T14:44:30.964Z,29.45
2018-06-30T14:47:01.068Z,29.56
2018-06-30T14:49:31.081Z,30.08
2018-06-30T14:52:00.808Z,30.39
2018-06-30T14:54:30.953Z,30.16
2018-06-30T14:57:00.724Z,29.96
2018-06-30T14:59:30.713Z,29.80
2018-06-30T15:02:00.678Z,29.96
2018-06-30T15:04:30.455Z,29.67
2018-06-30T15:07:00.354Z,29.36
2018-06-30T15:09:30.265Z,29.21
2018-06-30T15:14:35.808Z,29.21
2018-06-30T15:17:05.787Z,29.32
2018-06-30T15:19:35.692Z,29.93
2018-06-30T15:22:05.559Z,29.52
2018-06-30T15:24:35.367Z,29.43
2018-06-30T15:29:40.502Z,28.96
2018-06-30T15:32:10.197Z,28.96
2018-06-30T15:34:39.959Z,28.85
2018-06-30T15:37:09.862Z,29.20
2018-06-30T15:39:39.635Z,29.32
2018-06-30T15:42:09.328Z,29.28
2018-06-30T15:44:42.421Z,29.42
2018-06-30T15:47:12.222Z,29.61
2018-06-30T15:49:41.919Z,29.38
2018-06-30T15:52:11.796Z,29.49
2018-06-30T15:54:41.631Z,29.35
2018-06-30T15:57:14.995Z,29.47
2018-06-30T15:59:44.727Z,29.45
2018-06-30T16:02:14.594Z,29.14
2018-06-30T16:04:44.544Z,28.98
2018-06-30T16:07:14.338Z,28.85
2018-06-30T16:09:44.141Z,29.01
2018-06-30T16:12:13.893Z,29.09
2018-06-30T16:14:43.720Z,29.45
2018-06-30T16:17:13.440Z,29.07
2018-06-30T16:19:43.296Z,28.86
2018-06-30T16:22:13.074Z,28.82
2018-06-30T16:24:43.152Z,28.77
2018-06-30T16:27:12.868Z,29.01
2018-06-30T16:29:42.655Z,29.20
2018-06-30T16:32:12.534Z,29.31
2018-06-30T16:34:42.400Z,29.08
2018-06-30T16:37:12.293Z,28.88
2018-06-30T16:39:42.100Z,28.89
2018-06-30T16:42:12.293Z,28.51
2018-06-30T16:44:42.115Z,28.57
2018-06-30T16:47:11.873Z,28.56
2018-06-30T16:49:41.856Z,28.32
2018-06-30T16:52:11.794Z,28.25
2018-06-30T16:54:41.667Z,28.33
2018-06-30T16:57:11.355Z,28.31
2018-06-30T16:59:41.099Z,28.39
2018-06-30T17:02:10.904Z,28.51
2018-06-30T17:04:40.737Z,28.80
2018-06-30T17:07:10.575Z,28.70
2018-06-30T17:09:40.355Z,28.54
2018-06-30T17:12:10.090Z,28.66
2018-06-30T17:14:39.785Z,28.71
2018-06-30T17:17:09.559Z,28.50
2018-06-30T17:19:39.401Z,28.31
2018-06-30T17:22:09.114Z,28.57
2018-06-30T17:24:38.963Z,28.54
2018-06-30T17:27:08.880Z,28.58
2018-06-30T17:29:38.701Z,28.52
2018-06-30T17:32:08.577Z,28.35
2018-06-30T17:34:38.313Z,28.70
2018-06-30T17:37:08.192Z,27.99
2018-06-30T17:39:37.933Z,27.81
2018-06-30T17:42:07.638Z,27.46
2018-06-30T17:44:37.473Z,27.50
2018-06-30T17:47:07.210Z,27.63
2018-06-30T17:49:36.981Z,26.98
2018-06-30T17:52:06.718Z,27.14
2018-06-30T17:54:36.590Z,26.93
2018-06-30T17:57:06.368Z,26.74
2018-06-30T17:59:36.168Z,26.54
2018-06-30T18:02:06.047Z,26.62
2018-06-30T18:04:35.888Z,26.45
2018-06-30T18:07:05.642Z,26.59
2018-06-30T18:09:35.486Z,26.46
2018-06-30T18:12:05.243Z,26.19
2018-06-30T18:14:34.950Z,26.53
2018-06-30T18:17:04.777Z,26.40
2018-06-30T18:19:34.533Z,25.92
2018-06-30T18:22:04.313Z,25.81
2018-06-30T18:24:34.111Z,25.77
2018-06-30T18:27:03.801Z,25.64
2018-06-30T18:29:33.711Z,25.77
2018-06-30T18:32:03.617Z,25.72
2018-06-30T18:34:33.459Z,25.84
2018-06-30T18:37:03.201Z,26.06
2018-06-30T18:39:33.021Z,26.04
2018-06-30T18:42:03.173Z,25.62
2018-06-30T18:44:33.184Z,25.37
2018-06-30T18:47:03.640Z,25.51
2018-06-30T18:49:33.569Z,25.60
2018-06-30T18:52:03.323Z,25.79
2018-06-30T18:54:39.510Z,25.70
2018-06-30T18:57:09.363Z,25.46
2018-06-30T18:59:39.119Z,25.49
2018-06-30T19:02:08.937Z,25.42
2018-06-30T19:04:38.741Z,25.45
2018-06-30T19:07:08.668Z,25.23
2018-06-30T19:09:38.468Z,25.47
2018-06-30T19:12:08.348Z,25.83
2018-06-30T19:14:38.286Z,25.61
2018-06-30T19:17:08.253Z,25.36
2018-06-30T19:19:38.188Z,24.99
2018-06-30T19:22:07.972Z,25.13
2018-06-30T19:24:37.777Z,25.20
2018-06-30T19:27:07.518Z,25.09
2018-06-30T19:29:37.433Z,25.18
2018-06-30T19:32:07.206Z,25.03
2018-06-30T19:34:38.108Z,24.89
2018-06-30T19:37:07.942Z,24.72
2018-06-30T19:39:37.765Z,24.71
2018-06-30T19:44:42.430Z,24.59
2018-06-30T19:47:12.248Z,24.69
2018-06-30T19:49:41.967Z,24.80
2018-06-30T19:52:11.902Z,24.90
2018-06-30T19:54:42.361Z,24.59
2018-06-30T19:59:47.332Z,24.60
2018-06-30T20:02:17.560Z,24.21
2018-06-30T20:04:47.579Z,24.22
2018-06-30T20:07:17.386Z,24.26
2018-06-30T20:09:47.198Z,24.28
2018-06-30T20:12:16.998Z,24.46
2018-06-30T20:14:46.792Z,24.38
2018-06-30T20:17:16.604Z,24.17
2018-06-30T20:19:46.363Z,23.87
2018-06-30T20:22:16.320Z,23.96
2018-06-30T20:24:46.418Z,23.95
2018-06-30T20:29:51.821Z,23.71
2018-06-30T20:32:21.781Z,23.67
2018-06-30T20:34:51.748Z,23.72
2018-06-30T20:37:21.532Z,23.80
2018-06-30T20:39:51.495Z,23.83
2018-06-30T20:42:21.392Z,23.79
2018-06-30T20:44:51.211Z,23.89
2018-06-30T20:47:21.634Z,23.80
2018-06-30T20:49:51.571Z,23.84
2018-06-30T20:52:21.602Z,23.63
2018-06-30T20:54:51.553Z,23.52
2018-06-30T20:57:21.418Z,23.08
2018-06-30T20:59:51.222Z,23.05
2018-06-30T21:02:20.971Z,23.03
2018-06-30T21:04:50.733Z,22.99
2018-06-30T21:07:20.588Z,22.99
2018-06-30T21:09:50.684Z,23.01
2018-06-30T21:12:20.560Z,22.93
2018-06-30T21:14:51.097Z,23.08
2018-06-30T21:17:20.879Z,22.92
2018-06-30T21:19:50.872Z,22.84
2018-06-30T21:22:20.726Z,22.81
2018-06-30T21:24:50.795Z,23.02
2018-06-30T21:27:20.734Z,23.16
2018-06-30T21:29:50.648Z,22.94
2018-06-30T21:32:20.757Z,23.01
2018-06-30T21:34:50.556Z,23.06
2018-06-30T21:37:20.376Z,22.79
2018-06-30T21:39:50.117Z,22.67
2018-06-30T21:42:19.986Z,22.81
2018-06-30T21:47:18.378Z,22.64
2018-06-30T21:49:48.261Z,22.64
2018-06-30T21:52:18.100Z,22.66
2018-06-30T21:54:47.859Z,22.46
2018-06-30T21:57:17.654Z,22.36
2018-06-30T21:59:47.412Z,22.30
2018-06-30T22:02:17.190Z,22.24
2018-06-30T22:04:46.912Z,21.83
2018-06-30T22:07:22.968Z,21.85
2018-06-30T22:09:52.856Z,22.01
2018-06-30T22:12:22.808Z,21.98
2018-06-30T22:14:52.661Z,22.32
2018-06-30T22:17:22.489Z,22.30
2018-06-30T22:19:52.311Z,22.15
2018-06-30T22:22:22.078Z,22.09
2018-06-30T22:24:51.936Z,22.14
2018-06-30T22:27:21.684Z,21.90
2018-06-30T22:29:51.496Z,21.93
2018-06-30T22:32:21.320Z,22.07
2018-06-30T22:34:51.012Z,22.05
2018-06-30T22:37:20.883Z,21.99
2018-06-30T22:42:37.339Z,21.81
2018-06-30T22:45:07.184Z,21.73
2018-06-30T22:47:37.023Z,21.73
2018-06-30T22:50:07.191Z,21.66
2018-06-30T22:52:37.436Z,21.53
2018-06-30T22:55:11.202Z,21.58
2018-06-30T22:57:41.105Z,21.62
2018-06-30T23:00:12.068Z,21.57
2018-06-30T23:02:41.560Z,21.36
2018-06-30T23:05:11.349Z,21.28
2018-06-30T23:07:41.058Z,21.28
2018-06-30T23:10:12.379Z,21.21
2018-06-30T23:12:42.687Z,21.14
2018-06-30T23:15:12.804Z,21.19
2018-06-30T23:17:42.595Z,21.10
2018-06-30T23:20:12.364Z,21.06
2018-06-30T23:22:58.490Z,21.13
2018-06-30T23:25:29.529Z,21.11
2018-06-30T23:27:59.738Z,21.17
2018-06-30T23:30:30.022Z,21.19
2018-06-30T23:32:59.850Z,21.17
2018-06-30T23:35:30.521Z,21.22
2018-06-30T23:38:01.062Z,21.17
2018-06-30T23:40:30.785Z,21.23
2018-06-30T23:43:00.548Z,21.23
2018-06-30T23:45:30.272Z,21.34
2018-06-30T23:48:00.036Z,21.15
2018-06-30T23:50:29.922Z,21.06
2018-06-30T23:52:59.759Z,20.92
2018-06-30T23:55:29.576Z,20.88
2018-06-30T23:57:59.411Z,20.68
